createdAt,value
2023-02-09T08:14:14.008Z,11.40
2023-02-09T08:19:29.287Z,10.20
2023-02-09T08:56:09.875Z,10.37
2023-02-09T09:04:57.870Z,9.30
2023-02-09T09:09:07.561Z,10.10
2023-02-09T09:13:18.206Z,9.53
2023-02-09T09:17:27.723Z,8.70
2023-02-09T09:21:49.844Z,9.87
2023-02-09T09:26:03.442Z,10.23
2023-02-09T09:30:14.126Z,10.63
2023-02-09T09:34:23.583Z,10.00
2023-02-09T09:38:36.695Z,9.87
2023-02-09T09:42:54.709Z,9.23
2023-02-09T09:47:20.197Z,9.93
2023-02-09T09:51:47.883Z,9.80
2023-02-09T09:56:01.938Z,9.63
2023-02-09T10:00:20.432Z,10.30
2023-02-09T10:09:35.626Z,10.23
2023-02-09T10:13:50.726Z,9.20
2023-02-09T10:22:30.541Z,9.83
2023-02-09T10:26:41.011Z,7.73
2023-02-09T10:30:53.609Z,7.90
2023-02-09T10:35:05.165Z,6.37
2023-02-09T10:39:19.959Z,6.40
2023-02-09T10:43:32.923Z,6.67
2023-02-09T10:47:43.963Z,6.20
2023-02-09T10:51:53.906Z,5.97
2023-02-09T11:53:18.734Z,5.27
2023-02-09T11:57:42.676Z,4.33
2023-02-09T12:02:05.415Z,4.53
2023-02-09T12:11:11.698Z,7.93
2023-02-09T12:15:56.166Z,5.80
2023-02-09T12:20:56.283Z,6.70
2023-02-09T12:31:36.608Z,7.53
2023-02-09T12:36:56.207Z,5.17
2023-02-09T12:41:19.004Z,4.90
2023-02-09T12:46:08.140Z,4.50
2023-02-09T13:03:08.029Z,8.63
2023-02-09T13:12:33.095Z,7.03
2023-02-09T19:27:22.516Z,15.40
2023-02-09T20:34:49.570Z,14.40
2023-02-09T21:43:43.876Z,14.83
2023-02-09T21:47:53.360Z,13.10
2023-02-09T21:52:03.624Z,14.63
2023-02-09T21:56:53.207Z,11.23
2023-02-09T22:01:18.790Z,14.43
2023-02-09T22:10:10.479Z,12.27
2023-02-09T22:14:59.583Z,18.63
2023-02-09T22:19:11.625Z,11.13
2023-02-09T22:23:21.363Z,13.57
2023-02-09T22:27:31.041Z,14.30
2023-02-09T22:31:45.623Z,17.93
2023-02-09T22:35:56.919Z,11.93
2023-02-09T22:40:13.080Z,12.00
2023-02-09T22:44:30.857Z,11.87
2023-02-09T22:48:40.267Z,15.17
2023-02-09T22:52:51.158Z,14.83
2023-02-09T22:57:00.547Z,17.47
2023-02-09T23:01:12.820Z,17.03
2023-02-09T23:05:22.131Z,15.07
2023-02-09T23:09:33.319Z,14.93
2023-02-09T23:13:43.018Z,15.07
2023-02-09T23:17:52.204Z,10.37
2023-02-09T23:22:01.388Z,14.77
2023-02-09T23:26:12.108Z,11.77
2023-02-09T23:30:21.410Z,9.03
2023-02-09T23:34:30.480Z,9.20
2023-02-09T23:38:39.899Z,13.17
2023-02-09T23:42:50.583Z,12.13
2023-02-09T23:46:59.804Z,16.90
2023-02-09T23:51:11.109Z,14.73
2023-02-09T23:55:20.432Z,10.70
2023-02-09T23:59:31.542Z,12.43
